Time;durP1;ratioP1;P1;durP2;ratioP2;P2;SDS_P1;SDS_P2;PMS_P1;PMS_P2;Temp;Humidity;BMP_temperature;BMP_pressure;BME280_temperature;BME280_humidity;BME280_pressure;Samples;Min_cycle;Max_cycle;Signal;HPM_P1;HPM_P2
2022/03/08 00:00:57;;;;;;;;;;;6.30;99.90;;;;;;5093206;28;19915;-76
2022/03/08 00:03:23;;;;;;;;;;;6.30;99.90;;;;;;5093182;28;19954;-76
2022/03/08 00:05:48;;;;;;;;;;;6.20;99.90;;;;;;5092726;28;19908;-77
2022/03/08 00:08:14;;;;;;;;;;;6.20;99.90;;;;;;5093152;28;19942;-76
2022/03/08 00:10:40;;;;;;;;;;;6.20;99.90;;;;;;5093130;28;20004;-76
2022/03/08 00:13:05;;;;;;;;;;;6.20;99.90;;;;;;5092322;28;19912;-76
2022/03/08 00:15:31;;;;;;;;;;;6.10;99.90;;;;;;5093113;28;19912;-76
2022/03/08 00:17:57;;;;;;;;;;;6.10;99.90;;;;;;5092235;28;20277;-76
2022/03/08 00:20:23;;;;;;;;;;;6.10;99.90;;;;;;5092824;28;19909;-76
2022/03/08 00:22:48;;;;;;;;;;;6.10;99.90;;;;;;5093066;28;19961;-76
2022/03/08 00:25:14;;;;;;;;;;;6.10;99.90;;;;;;5092397;28;19953;-76
2022/03/08 00:27:46;;;;;;;;;;;6.10;99.90;;;;;;5092755;28;19923;-75
2022/03/08 00:30:13;;;;;;;;;;;6.10;99.90;;;;;;5092508;28;20242;-75
2022/03/08 00:32:38;;;;;;;;;;;6.10;99.90;;;;;;5092766;28;19908;-75
2022/03/08 00:35:05;;;;;;;;;;;6.00;99.90;;;;;;5091810;28;20314;-77
2022/03/08 00:37:30;;;;;;;;;;;6.10;99.90;;;;;;5093059;28;19908;-75
2022/03/08 00:39:56;;;;;;;;;;;6.10;99.90;;;;;;5092731;28;19935;-75
2022/03/08 00:42:21;;;;;;;;;;;6.10;99.90;;;;;;5093147;28;19954;-75
2022/03/08 00:44:47;;;;;;;;;;;6.10;99.90;;;;;;5093062;28;19908;-75
2022/03/08 00:47:13;;;;;;;;;;;6.10;99.90;;;;;;5091220;28;19923;-75
2022/03/08 00:49:39;;;;;;;;;;;6.00;99.90;;;;;;5093103;28;19915;-75
2022/03/08 00:52:05;;;;;;;;;;;6.10;99.90;;;;;;5093482;28;19908;-75
2022/03/08 00:54:30;;;;;;;;;;;6.00;99.90;;;;;;5093157;28;19961;-75
2022/03/08 00:56:56;;;;;;;;;;;6.00;99.90;;;;;;5092553;28;19912;-76
2022/03/08 00:59:22;;;;;;;;;;;6.00;99.90;;;;;;5092577;28;19920;-75
2022/03/08 01:01:47;;;;;;;;;;;5.90;99.90;;;;;;5091732;28;19952;-76
2022/03/08 01:04:13;;;;;;;;;;;5.90;99.90;;;;;;5092435;28;20002;-75
2022/03/08 01:06:42;;;;;;;;;;;5.90;99.90;;;;;;5092924;28;19954;-75
2022/03/08 01:09:08;;;;;;;;;;;5.80;99.90;;;;;;5091011;28;19916;-75
2022/03/08 01:11:36;;;;;;;;;;;5.80;99.90;;;;;;5092895;28;19954;-75
2022/03/08 01:14:06;;;;;;;;;;;5.80;99.90;;;;;;5095288;28;19916;-75
2022/03/08 01:16:32;;;;;;;;;;;5.80;99.90;;;;;;5099614;28;19908;-75
2022/03/08 01:18:58;;;;;;;;;;;5.80;99.90;;;;;;5099055;28;19958;-75
2022/03/08 01:21:24;;;;;;;;;;;5.80;99.90;;;;;;5099655;28;20280;-76
2022/03/08 01:23:49;;;;;;;;;;;5.80;99.90;;;;;;5099515;28;19946;-75
2022/03/08 01:26:15;;;;;;;;;;;5.70;99.90;;;;;;5098891;28;19912;-76
2022/03/08 01:28:41;;;;;;;;;;;5.70;99.90;;;;;;5099302;28;19969;-76
2022/03/08 01:31:06;;;;;;;;;;;5.70;99.90;;;;;;5098604;28;19919;-75
2022/03/08 01:33:32;;;;;;;;;;;5.60;99.90;;;;;;5099634;28;19916;-75
2022/03/08 01:35:57;;;;;;;;;;;5.70;99.90;;;;;;5098919;28;20288;-75
2022/03/08 01:38:23;;;;;;;;;;;5.70;99.90;;;;;;5099301;28;19915;-75
2022/03/08 01:40:48;;;;;;;;;;;5.70;99.90;;;;;;5098196;28;19915;-75
2022/03/08 01:43:14;;;;;;;;;;;5.60;99.90;;;;;;5098847;28;19962;-75
2022/03/08 01:45:40;;;;;;;;;;;5.60;99.90;;;;;;5099204;28;20319;-75
2022/03/08 01:48:05;;;;;;;;;;;5.60;99.90;;;;;;5098724;28;19920;-75
2022/03/08 01:50:31;;;;;;;;;;;5.50;99.90;;;;;;5103404;28;19943;-75
2022/03/08 01:52:57;;;;;;;;;;;5.60;99.90;;;;;;5100939;28;19908;-75
2022/03/08 01:55:22;;;;;;;;;;;5.50;99.90;;;;;;5099236;28;19954;-76
2022/03/08 01:57:49;;;;;;;;;;;5.50;99.90;;;;;;5099331;28;20011;-75
2022/03/08 02:00:16;;;;;;;;;;;5.50;99.90;;;;;;5098512;28;19912;-76
2022/03/08 02:02:42;;;;;;;;;;;5.50;99.90;;;;;;5099218;28;19953;-76
2022/03/08 02:05:08;;;;;;;;;;;5.50;99.90;;;;;;5098626;28;19908;-76
2022/03/08 02:07:36;;;;;;;;;;;5.60;99.90;;;;;;5098341;28;20535;-76
2022/03/08 02:10:02;;;;;;;;;;;5.60;99.90;;;;;;5098847;28;19908;-75
2022/03/08 02:12:28;;;;;;;;;;;5.60;99.90;;;;;;5099122;28;19908;-76
2022/03/08 02:14:53;;;;;;;;;;;5.60;99.90;;;;;;5099022;28;20375;-76
2022/03/08 02:17:19;;;;;;;;;;;5.60;99.90;;;;;;5098531;28;19962;-76
2022/03/08 02:19:44;;;;;;;;;;;5.60;99.90;;;;;;5099280;28;19957;-75
2022/03/08 02:22:10;;;;;;;;;;;5.60;99.90;;;;;;5098513;28;19959;-75
2022/03/08 02:24:35;;;;;;;;;;;5.60;99.90;;;;;;5096809;28;19915;-75
2022/03/08 02:27:01;;;;;;;;;;;5.50;99.90;;;;;;5094679;28;19908;-75
2022/03/08 02:29:27;;;;;;;;;;;5.50;99.90;;;;;;5095573;28;20384;-75
2022/03/08 02:31:54;;;;;;;;;;;5.50;99.90;;;;;;5095723;28;19908;-76
2022/03/08 02:34:20;;;;;;;;;;;5.60;99.90;;;;;;5095395;28;19919;-76
2022/03/08 02:36:55;;;;;;;;;;;5.60;99.90;;;;;;5095447;28;19908;-75
2022/03/08 02:39:21;;;;;;;;;;;5.60;99.90;;;;;;5094928;28;19909;-76
2022/03/08 02:41:46;;;;;;;;;;;5.50;99.90;;;;;;5095493;28;19915;-75
2022/03/08 02:44:13;;;;;;;;;;;5.60;99.90;;;;;;5094862;28;19923;-76
2022/03/08 02:46:38;;;;;;;;;;;5.60;99.90;;;;;;5094027;28;19908;-76
2022/03/08 02:49:04;;;;;;;;;;;5.60;99.90;;;;;;5094821;28;20377;-76
2022/03/08 02:51:30;;;;;;;;;;;5.60;99.90;;;;;;5095196;28;20267;-75
2022/03/08 02:53:55;;;;;;;;;;;5.60;99.90;;;;;;5095281;28;20473;-76
2022/03/08 02:56:21;;;;;;;;;;;5.60;99.90;;;;;;5094482;28;19912;-76
2022/03/08 02:58:47;;;;;;;;;;;5.60;99.90;;;;;;5094679;28;19962;-76
2022/03/08 03:01:12;;;;;;;;;;;5.60;99.90;;;;;;5094308;28;19952;-75
2022/03/08 03:03:38;;;;;;;;;;;5.60;99.90;;;;;;5095032;28;20277;-76
2022/03/08 03:06:04;;;;;;;;;;;5.60;99.90;;;;;;5095211;28;19916;-77
2022/03/08 03:08:29;;;;;;;;;;;5.60;99.90;;;;;;5098827;28;19987;-76
2022/03/08 03:10:55;;;;;;;;;;;5.60;99.90;;;;;;5093493;28;19908;-76
2022/03/08 03:13:20;;;;;;;;;;;5.60;99.90;;;;;;5094439;28;19914;-76
2022/03/08 03:15:46;;;;;;;;;;;5.60;99.90;;;;;;5094929;28;20429;-75
2022/03/08 03:18:11;;;;;;;;;;;5.60;99.90;;;;;;5094109;28;19908;-75
2022/03/08 03:20:37;;;;;;;;;;;5.60;99.90;;;;;;5094778;28;19908;-76
2022/03/08 03:23:02;;;;;;;;;;;5.60;99.90;;;;;;5094051;28;19908;-76
2022/03/08 03:25:28;;;;;;;;;;;5.60;99.90;;;;;;5094460;28;19954;-76
2022/03/08 03:27:54;;;;;;;;;;;5.60;99.90;;;;;;5094664;28;20372;-76
2022/03/08 03:30:19;;;;;;;;;;;5.60;99.90;;;;;;5092703;28;19915;-75
2022/03/08 03:32:45;;;;;;;;;;;5.70;99.90;;;;;;5094627;28;20007;-75
2022/03/08 03:35:11;;;;;;;;;;;5.70;99.90;;;;;;5093931;28;19908;-76
2022/03/08 03:37:37;;;;;;;;;;;5.70;99.90;;;;;;5094215;28;19915;-76
2022/03/08 03:40:04;;;;;;;;;;;5.70;99.90;;;;;;5094083;28;19908;-76
2022/03/08 03:42:30;;;;;;;;;;;5.70;99.90;;;;;;5094467;28;20307;-76
2022/03/08 03:44:55;;;;;;;;;;;5.70;99.90;;;;;;5094257;28;19908;-76
2022/03/08 03:47:21;;;;;;;;;;;5.70;99.90;;;;;;5093633;28;19973;-76
2022/03/08 03:49:46;;;;;;;;;;;5.70;99.90;;;;;;5093016;28;19981;-77
2022/03/08 03:52:12;;;;;;;;;;;5.70;99.90;;;;;;5093991;28;19908;-77
2022/03/08 03:54:37;;;;;;;;;;;5.70;99.90;;;;;;5094306;28;19908;-77
2022/03/08 03:57:03;;;;;;;;;;;5.70;99.90;;;;;;5093597;28;20007;-77
2022/03/08 03:59:29;;;;;;;;;;;5.70;99.90;;;;;;5093901;28;19912;-76
2022/03/08 04:01:54;;;;;;;;;;;5.70;99.90;;;;;;5094002;28;20353;-77
2022/03/08 04:04:20;;;;;;;;;;;5.70;99.90;;;;;;5093174;28;19962;-77
2022/03/08 04:06:45;;;;;;;;;;;5.70;99.90;;;;;;5094127;28;20018;-77
2022/03/08 04:09:13;;;;;;;;;;;5.70;99.90;;;;;;5092962;28;19916;-77
2022/03/08 04:11:38;;;;;;;;;;;5.80;99.90;;;;;;5093856;28;19908;-77
2022/03/08 04:14:04;;;;;;;;;;;5.70;99.90;;;;;;5093488;28;19931;-77
2022/03/08 04:16:30;;;;;;;;;;;5.80;99.90;;;;;;5092064;28;19999;-77
2022/03/08 04:18:56;;;;;;;;;;;5.80;99.90;;;;;;5094060;28;19963;-77
2022/03/08 04:21:21;;;;;;;;;;;5.90;99.90;;;;;;5093324;28;20377;-77
2022/03/08 04:23:47;;;;;;;;;;;5.80;99.90;;;;;;5098860;28;19908;-77
2022/03/08 04:26:12;;;;;;;;;;;5.80;99.90;;;;;;5092982;28;19966;-77
2022/03/08 04:28:38;;;;;;;;;;;5.80;99.90;;;;;;5093626;28;19922;-77
2022/03/08 04:31:03;;;;;;;;;;;5.90;99.90;;;;;;5093402;28;20307;-77
2022/03/08 04:33:29;;;;;;;;;;;5.90;99.90;;;;;;5092706;28;19942;-77
2022/03/08 04:35:55;;;;;;;;;;;5.90;99.90;;;;;;5093215;28;19915;-77
2022/03/08 04:38:20;;;;;;;;;;;5.90;99.90;;;;;;5092847;28;19912;-77
2022/03/08 04:40:46;;;;;;;;;;;5.90;99.90;;;;;;5093020;28;20276;-77
2022/03/08 04:43:11;;;;;;;;;;;5.90;99.90;;;;;;5092741;28;19908;-77
2022/03/08 04:45:37;;;;;;;;;;;5.90;99.90;;;;;;5093368;28;19915;-77
2022/03/08 04:48:03;;;;;;;;;;;5.90;99.90;;;;;;5092640;28;20398;-77
2022/03/08 04:50:28;;;;;;;;;;;5.90;99.90;;;;;;5092649;28;19919;-77
2022/03/08 04:52:54;;;;;;;;;;;6.00;99.90;;;;;;5093413;28;19908;-77
2022/03/08 04:55:20;;;;;;;;;;;6.00;99.90;;;;;;5092681;28;19930;-77
2022/03/08 04:57:46;;;;;;;;;;;6.00;99.90;;;;;;5092672;28;20010;-77
2022/03/08 05:00:12;;;;;;;;;;;6.00;99.90;;;;;;5092635;28;19908;-77
2022/03/08 05:02:41;;;;;;;;;;;6.00;99.90;;;;;;5092951;28;19991;-77
2022/03/08 05:05:08;;;;;;;;;;;6.00;99.90;;;;;;5092705;28;19908;-77
2022/03/08 05:07:37;;;;;;;;;;;6.00;99.90;;;;;;5093077;28;19916;-77
2022/03/08 05:10:04;;;;;;;;;;;6.00;99.90;;;;;;5091714;28;20361;-77
2022/03/08 05:12:30;;;;;;;;;;;6.00;99.90;;;;;;5091150;28;19947;-77
2022/03/08 05:14:56;;;;;;;;;;;6.00;99.90;;;;;;5093057;28;19913;-77
2022/03/08 05:17:21;;;;;;;;;;;6.00;99.90;;;;;;5092616;28;19908;-77
2022/03/08 05:19:47;;;;;;;;;;;6.00;99.90;;;;;;5092952;28;20017;-77
2022/03/08 05:22:13;;;;;;;;;;;6.00;99.90;;;;;;5092272;28;19908;-77
2022/03/08 05:24:39;;;;;;;;;;;6.00;99.90;;;;;;5092835;28;19908;-77
2022/03/08 05:27:05;;;;;;;;;;;6.00;99.90;;;;;;5092939;28;19915;-77
2022/03/08 05:29:31;;;;;;;;;;;6.00;99.90;;;;;;5092271;28;20175;-77
2022/03/08 05:31:57;;;;;;;;;;;6.00;99.90;;;;;;5092769;28;19912;-77
2022/03/08 05:34:22;;;;;;;;;;;6.00;99.90;;;;;;5095157;28;19931;-76
2022/03/08 05:36:48;;;;;;;;;;;6.10;99.90;;;;;;5092469;28;20394;-77
2022/03/08 05:39:13;;;;;;;;;;;6.10;99.90;;;;;;5092189;28;19909;-77
2022/03/08 05:41:39;;;;;;;;;;;6.10;99.90;;;;;;5092452;28;19919;-77
2022/03/08 05:44:05;;;;;;;;;;;6.00;99.90;;;;;;5092651;28;19908;-77
2022/03/08 05:46:30;;;;;;;;;;;6.10;99.90;;;;;;5092430;28;19920;-77
2022/03/08 05:48:56;;;;;;;;;;;6.10;99.90;;;;;;5092195;28;19926;-77
2022/03/08 05:51:21;;;;;;;;;;;6.10;99.90;;;;;;5090913;28;19954;-77
2022/03/08 05:53:47;;;;;;;;;;;6.00;99.90;;;;;;5092254;28;19985;-77
2022/03/08 05:56:12;;;;;;;;;;;6.10;99.90;;;;;;5092082;28;19922;-77
2022/03/08 05:58:38;;;;;;;;;;;6.10;99.90;;;;;;5092095;28;19942;-77
2022/03/08 06:01:04;;;;;;;;;;;6.10;99.90;;;;;;5095529;28;19919;-77
2022/03/08 06:03:29;;;;;;;;;;;6.10;99.90;;;;;;5095416;28;19931;-77
2022/03/08 06:05:55;;;;;;;;;;;6.10;99.90;;;;;;5096345;28;19953;-77
2022/03/08 06:08:20;;;;;;;;;;;6.10;99.90;;;;;;5095303;28;20285;-77
2022/03/08 06:10:46;;;;;;;;;;;6.10;99.90;;;;;;5094916;28;19951;-77
2022/03/08 06:13:11;;;;;;;;;;;6.10;99.90;;;;;;5096163;28;20420;-77
2022/03/08 06:15:37;;;;;;;;;;;6.10;99.90;;;;;;5095710;28;19908;-77
2022/03/08 06:18:03;;;;;;;;;;;6.10;99.90;;;;;;5095792;28;19908;-77
2022/03/08 06:20:28;;;;;;;;;;;6.10;99.90;;;;;;5095289;28;19916;-77
2022/03/08 06:22:54;;;;;;;;;;;6.10;99.90;;;;;;5095960;28;19912;-77
2022/03/08 06:25:20;;;;;;;;;;;6.10;99.90;;;;;;5095400;28;19912;-77
2022/03/08 06:27:46;;;;;;;;;;;6.10;99.90;;;;;;5095499;28;19920;-77
2022/03/08 06:30:11;;;;;;;;;;;6.10;99.90;;;;;;5095427;28;19987;-77
2022/03/08 06:32:37;;;;;;;;;;;6.10;99.90;;;;;;5095118;28;19909;-77
2022/03/08 06:35:03;;;;;;;;;;;6.10;99.90;;;;;;5095515;28;19908;-77
2022/03/08 06:37:29;;;;;;;;;;;6.10;99.90;;;;;;5095098;28;19953;-77
2022/03/08 06:39:54;;;;;;;;;;;6.10;99.90;;;;;;5095834;28;20074;-77
2022/03/08 06:42:20;;;;;;;;;;;6.10;99.90;;;;;;5095158;28;19912;-77
2022/03/08 06:44:46;;;;;;;;;;;6.10;99.90;;;;;;5095684;28;19908;-77
2022/03/08 06:47:11;;;;;;;;;;;6.10;99.90;;;;;;5096766;28;19908;-78
2022/03/08 06:49:38;;;;;;;;;;;6.10;99.90;;;;;;5095055;28;19908;-77
2022/03/08 06:52:03;;;;;;;;;;;6.20;99.90;;;;;;5095479;28;19908;-77
2022/03/08 06:54:29;;;;;;;;;;;6.10;99.90;;;;;;5094798;28;19908;-77
2022/03/08 06:56:54;;;;;;;;;;;6.20;99.90;;;;;;5095311;28;20341;-77
2022/03/08 06:59:20;;;;;;;;;;;6.10;99.90;;;;;;5094785;28;19989;-77
2022/03/08 07:01:46;;;;;;;;;;;6.10;99.90;;;;;;5095301;28;19956;-77
2022/03/08 07:04:12;;;;;;;;;;;6.20;99.90;;;;;;5094542;28;19970;-77
2022/03/08 07:06:37;;;;;;;;;;;6.10;99.90;;;;;;5094545;28;19909;-77
2022/03/08 07:09:03;;;;;;;;;;;6.20;99.90;;;;;;5093672;28;20001;-77
2022/03/08 07:11:28;;;;;;;;;;;6.10;99.90;;;;;;5093474;28;19908;-77
2022/03/08 07:13:54;;;;;;;;;;;6.20;99.90;;;;;;5095360;28;19961;-77
2022/03/08 07:16:19;;;;;;;;;;;6.10;99.90;;;;;;5094323;28;19908;-77
2022/03/08 07:18:45;;;;;;;;;;;6.10;99.90;;;;;;5094922;28;19916;-77
2022/03/08 07:21:11;;;;;;;;;;;6.10;99.90;;;;;;5094741;28;19908;-77
2022/03/08 07:23:37;;;;;;;;;;;6.20;99.90;;;;;;5094080;28;20510;-77
2022/03/08 07:26:03;;;;;;;;;;;6.20;99.90;;;;;;5094612;28;20353;-77
2022/03/08 07:28:28;;;;;;;;;;;6.20;99.90;;;;;;5094213;28;19916;-77
2022/03/08 07:30:54;;;;;;;;;;;6.20;99.90;;;;;;5094384;28;19916;-77
2022/03/08 07:33:19;;;;;;;;;;;6.20;99.90;;;;;;5094098;28;19909;-77
2022/03/08 07:35:45;;;;;;;;;;;6.20;99.90;;;;;;5094254;28;19912;-77
2022/03/08 07:38:11;;;;;;;;;;;6.30;99.90;;;;;;5094293;28;19908;-77
2022/03/08 07:40:36;;;;;;;;;;;6.30;99.90;;;;;;5093701;28;19912;-77
2022/03/08 07:43:02;;;;;;;;;;;6.30;99.90;;;;;;5094229;28;19908;-77
2022/03/08 07:45:28;;;;;;;;;;;6.30;99.90;;;;;;5094615;28;20333;-76
2022/03/08 07:47:54;;;;;;;;;;;6.30;99.90;;;;;;5094207;28;19916;-77
2022/03/08 07:50:22;;;;;;;;;;;6.40;99.90;;;;;;5093826;28;19908;-77
2022/03/08 07:52:47;;;;;;;;;;;6.40;99.90;;;;;;5092884;28;20285;-77
2022/03/08 07:55:13;;;;;;;;;;;6.40;99.90;;;;;;5094124;28;19919;-77
2022/03/08 07:57:39;;;;;;;;;;;6.50;99.90;;;;;;5092796;28;20617;-77
2022/03/08 08:00:05;;;;;;;;;;;6.50;99.90;;;;;;5094028;28;19908;-77
2022/03/08 08:02:30;;;;;;;;;;;6.40;99.90;;;;;;5093985;28;20420;-77
2022/03/08 08:04:56;;;;;;;;;;;6.50;99.90;;;;;;5093591;28;19912;-77
2022/03/08 08:07:22;;;;;;;;;;;6.50;99.90;;;;;;5093189;28;20357;-77
2022/03/08 08:09:47;;;;;;;;;;;6.50;99.90;;;;;;5093736;28;19977;-76
2022/03/08 08:12:13;;;;;;;;;;;6.50;99.90;;;;;;5093300;28;20361;-77
2022/03/08 08:14:39;;;;;;;;;;;6.50;99.90;;;;;;5093107;28;19950;-77
2022/03/08 08:17:05;;;;;;;;;;;6.50;99.90;;;;;;5093406;28;19908;-77
2022/03/08 08:19:30;;;;;;;;;;;6.50;99.90;;;;;;5092543;28;19942;-77
2022/03/08 08:21:56;;;;;;;;;;;6.50;99.90;;;;;;5092908;28;19912;-77
2022/03/08 08:24:22;;;;;;;;;;;6.50;99.90;;;;;;5091606;28;19943;-77
2022/03/08 08:26:47;;;;;;;;;;;6.50;99.90;;;;;;5092980;28;19999;-77
2022/03/08 08:29:13;;;;;;;;;;;6.50;99.90;;;;;;5093279;28;19923;-77
2022/03/08 08:31:38;;;;;;;;;;;6.60;99.90;;;;;;5092556;28;20436;-77
2022/03/08 08:34:04;;;;;;;;;;;6.60;99.90;;;;;;5093123;28;19950;-77
2022/03/08 08:36:30;;;;;;;;;;;6.60;99.90;;;;;;5092411;28;19958;-77
2022/03/08 08:38:55;;;;;;;;;;;6.60;99.90;;;;;;5093164;28;19956;-77
2022/03/08 08:41:21;;;;;;;;;;;6.60;99.90;;;;;;5092573;28;19908;-77
2022/03/08 08:43:46;;;;;;;;;;;6.70;99.90;;;;;;5092658;28;19915;-77
2022/03/08 08:46:12;;;;;;;;;;;6.70;99.90;;;;;;5093006;28;20041;-77
2022/03/08 08:48:38;;;;;;;;;;;6.70;99.90;;;;;;5092543;28;20269;-77
2022/03/08 08:51:03;;;;;;;;;;;6.80;99.90;;;;;;5093001;28;19908;-77
2022/03/08 08:53:29;;;;;;;;;;;6.70;99.90;;;;;;5092555;28;20003;-76
2022/03/08 08:55:54;;;;;;;;;;;6.80;99.90;;;;;;5092397;28;19961;-77
2022/03/08 08:58:20;;;;;;;;;;;6.80;99.90;;;;;;5088348;28;19924;-78
2022/03/08 09:00:45;;;;;;;;;;;6.90;99.90;;;;;;5090648;28;19948;-78
2022/03/08 09:03:14;;;;;;;;;;;6.90;99.90;;;;;;5092447;28;19928;-76
2022/03/08 09:05:42;;;;;;;;;;;7.00;99.90;;;;;;5091979;28;20018;-75
2022/03/08 09:08:07;;;;;;;;;;;7.00;99.90;;;;;;5092495;28;19942;-76
2022/03/08 09:10:33;;;;;;;;;;;7.10;99.90;;;;;;5092094;28;19912;-76
2022/03/08 09:12:59;;;;;;;;;;;7.10;99.90;;;;;;5092604;28;20011;-76
2022/03/08 09:15:24;;;;;;;;;;;7.20;99.90;;;;;;5092348;28;19908;-76
2022/03/08 09:17:50;;;;;;;;;;;7.10;99.90;;;;;;5092628;28;19915;-77
2022/03/08 09:20:16;;;;;;;;;;;7.20;99.90;;;;;;5092379;28;19912;-77
2022/03/08 09:22:41;;;;;;;;;;;7.20;99.90;;;;;;5091844;28;19915;-77
2022/03/08 09:25:08;;;;;;;;;;;7.30;99.90;;;;;;5092864;28;19943;-77
2022/03/08 09:27:34;;;;;;;;;;;7.30;99.90;;;;;;5092129;28;19916;-76
2022/03/08 09:30:00;;;;;;;;;;;7.30;99.90;;;;;;5091700;28;19940;-77
2022/03/08 09:32:25;;;;;;;;;;;7.40;99.90;;;;;;5092166;28;19918;-76
2022/03/08 09:34:51;;;;;;;;;;;7.40;99.90;;;;;;5093602;28;20290;-77
2022/03/08 09:37:16;;;;;;;;;;;7.50;99.90;;;;;;5096283;28;19930;-77
2022/03/08 09:39:42;;;;;;;;;;;7.50;99.90;;;;;;5096136;28;19908;-77
2022/03/08 09:42:08;;;;;;;;;;;7.50;99.90;;;;;;5095872;28;20325;-76
2022/03/08 09:44:33;;;;;;;;;;;7.50;99.90;;;;;;5095503;28;19915;-77
2022/03/08 09:46:59;;;;;;;;;;;7.60;99.90;;;;;;5096045;28;19932;-77
2022/03/08 09:49:25;;;;;;;;;;;7.60;99.90;;;;;;5094675;28;19961;-76
2022/03/08 09:51:52;;;;;;;;;;;7.70;99.90;;;;;;5095501;28;20284;-77
2022/03/08 09:54:18;;;;;;;;;;;7.80;99.90;;;;;;5095523;28;20438;-77
2022/03/08 09:56:43;;;;;;;;;;;7.90;99.90;;;;;;5094472;28;19908;-76
2022/03/08 09:59:09;;;;;;;;;;;8.00;99.90;;;;;;5095868;28;20353;-77
2022/03/08 10:01:34;;;;;;;;;;;8.00;99.90;;;;;;5098108;28;19908;-76
2022/03/08 10:04:01;;;;;;;;;;;8.10;99.90;;;;;;5095510;28;19938;-76
2022/03/08 10:06:38;;;;;;;;;;;8.30;99.90;;;;;;5095054;28;20318;-76
2022/03/08 10:09:10;;;;;;;;;;;8.40;99.90;;;;;;5095759;28;19916;-76
2022/03/08 10:11:37;;;;;;;;;;;8.50;99.90;;;;;;5095109;28;19995;-76
2022/03/08 10:14:02;;;;;;;;;;;8.50;99.90;;;;;;5095548;28;19930;-77
2022/03/08 10:16:42;;;;;;;;;;;8.50;99.90;;;;;;5094799;28;20424;-77
2022/03/08 10:19:08;;;;;;;;;;;8.50;99.90;;;;;;5095389;28;20276;-76
2022/03/08 10:21:47;;;;;;;;;;;8.50;99.90;;;;;;5094944;28;19973;-77
2022/03/08 10:24:17;;;;;;;;;;;8.60;99.90;;;;;;5095626;28;19915;-77
2022/03/08 10:26:50;;;;;;;;;;;8.80;99.90;;;;;;5095147;28;19915;-76
2022/03/08 10:29:22;;;;;;;;;;;8.90;99.90;;;;;;5095668;28;20067;-77
2022/03/08 10:31:48;;;;;;;;;;;8.90;99.90;;;;;;5094814;28;19909;-77
2022/03/08 10:34:15;;;;;;;;;;;8.90;99.90;;;;;;5095573;28;20023;-77
2022/03/08 10:36:56;;;;;;;;;;;8.90;99.90;;;;;;5094828;28;19962;-77
2022/03/08 10:39:22;;;;;;;;;;;8.90;99.90;;;;;;5095315;28;19953;-77
2022/03/08 10:41:49;;;;;;;;;;;8.80;99.90;;;;;;5093415;28;20357;-77
2022/03/08 10:44:15;;;;;;;;;;;8.80;99.90;;;;;;5095204;28;19934;-78
2022/03/08 10:46:41;;;;;;;;;;;8.70;99.90;;;;;;5093594;28;19908;-77
2022/03/08 10:49:10;;;;;;;;;;;8.70;99.90;;;;;;5095120;28;19920;-77
2022/03/08 10:51:36;;;;;;;;;;;8.60;99.90;;;;;;5094806;28;19960;-78
2022/03/08 10:54:14;;;;;;;;;;;8.60;99.90;;;;;;5094846;28;19935;-77
2022/03/08 10:56:44;;;;;;;;;;;8.60;99.90;;;;;;5094661;28;19909;-77
2022/03/08 10:59:11;;;;;;;;;;;8.60;99.90;;;;;;5095327;28;19919;-77
2022/03/08 11:01:38;;;;;;;;;;;8.60;99.90;;;;;;5094297;28;20322;-77
2022/03/08 11:04:04;;;;;;;;;;;8.60;99.90;;;;;;5095362;28;19908;-77
2022/03/08 11:06:31;;;;;;;;;;;8.60;99.90;;;;;;5094360;28;19926;-77
2022/03/08 11:08:56;;;;;;;;;;;8.70;99.90;;;;;;5094930;28;19920;-77
2022/03/08 11:11:22;;;;;;;;;;;8.80;99.90;;;;;;5097957;28;20425;-78
2022/03/08 11:13:51;;;;;;;;;;;8.90;99.90;;;;;;5096277;28;19904;-77
2022/03/08 11:16:18;;;;;;;;;;;8.90;99.90;;;;;;5094974;28;20021;-76
2022/03/08 11:18:44;;;;;;;;;;;8.90;99.90;;;;;;5094556;28;19962;-77
2022/03/08 11:21:10;;;;;;;;;;;8.90;99.90;;;;;;5094907;28;19908;-77
2022/03/08 11:23:36;;;;;;;;;;;9.00;99.90;;;;;;5093940;28;19919;-76
2022/03/08 11:26:02;;;;;;;;;;;8.90;99.90;;;;;;5094535;28;19908;-76
2022/03/08 11:28:28;;;;;;;;;;;8.90;99.90;;;;;;5094582;28;19923;-76
2022/03/08 11:30:54;;;;;;;;;;;8.80;99.90;;;;;;5094213;28;20369;-77
2022/03/08 11:33:39;;;;;;;;;;;8.80;99.90;;;;;;5094214;28;20434;-78
2022/03/08 11:36:20;;;;;;;;;;;8.80;99.90;;;;;;5093612;28;19915;-77
2022/03/08 11:39:04;;;;;;;;;;;8.80;99.90;;;;;;5094141;28;19940;-77
2022/03/08 11:41:30;;;;;;;;;;;8.80;99.90;;;;;;5093353;28;20391;-77
2022/03/08 11:43:55;;;;;;;;;;;8.90;99.90;;;;;;5093824;28;20003;-77
2022/03/08 11:46:22;;;;;;;;;;;8.90;99.90;;;;;;5093614;28;20390;-77
2022/03/08 11:48:51;;;;;;;;;;;9.00;99.90;;;;;;5092951;28;20001;-77
2022/03/08 11:51:16;;;;;;;;;;;9.10;99.90;;;;;;5093248;28;20281;-78
2022/03/08 11:53:44;;;;;;;;;;;9.20;99.90;;;;;;5093009;28;19908;-78
2022/03/08 11:56:16;;;;;;;;;;;9.30;99.90;;;;;;5093518;28;19908;-77
2022/03/08 11:58:43;;;;;;;;;;;9.30;99.90;;;;;;5092445;28;19990;-77
2022/03/08 12:01:20;;;;;;;;;;;9.40;99.90;;;;;;5093448;28;19908;-78
2022/03/08 12:03:46;;;;;;;;;;;9.50;99.90;;;;;;5092663;28;19908;-77
2022/03/08 12:06:13;;;;;;;;;;;9.50;99.90;;;;;;5093488;28;19934;-77
2022/03/08 12:08:46;;;;;;;;;;;9.50;99.90;;;;;;5092201;28;19923;-77
2022/03/08 12:11:16;;;;;;;;;;;9.40;99.90;;;;;;5093428;28;19931;-77
2022/03/08 12:13:43;;;;;;;;;;;9.30;99.90;;;;;;5092633;28;20002;-77
2022/03/08 12:16:09;;;;;;;;;;;9.20;99.90;;;;;;5125670;27;19908;-78
2022/03/08 12:18:35;;;;;;;;;;;9.20;99.90;;;;;;5092481;28;19953;-77
2022/03/08 12:21:16;;;;;;;;;;;9.20;99.90;;;;;;5094620;28;19915;-78
2022/03/08 12:23:59;;;;;;;;;;;9.20;99.90;;;;;;5096562;28;19908;-77
2022/03/08 12:26:26;;;;;;;;;;;9.20;99.90;;;;;;5092851;28;19915;-77
2022/03/08 12:29:07;;;;;;;;;;;9.30;99.90;;;;;;5091132;28;19923;-77
2022/03/08 12:31:51;;;;;;;;;;;9.40;99.90;;;;;;5092333;28;19908;-77
2022/03/08 12:34:17;;;;;;;;;;;9.50;99.90;;;;;;5093117;28;19965;-77
2022/03/08 12:37:00;;;;;;;;;;;9.50;99.90;;;;;;5091914;28;19908;-77
2022/03/08 12:39:45;;;;;;;;;;;9.60;99.90;;;;;;5092814;28;19912;-78
2022/03/08 12:42:17;;;;;;;;;;;9.70;99.90;;;;;;5091474;28;19908;-77
2022/03/08 12:45:09;;;;;;;;;;;9.60;99.90;;;;;;5092267;28;19908;-77
2022/03/08 12:47:48;;;;;;;;;;;9.60;99.90;;;;;;5083098;28;19916;-78
2022/03/08 12:50:15;;;;;;;;;;;9.60;99.90;;;;;;5092392;28;19915;-78
2022/03/08 12:52:44;;;;;;;;;;;9.60;99.90;;;;;;5092046;28;19962;-77
2022/03/08 12:55:12;;;;;;;;;;;9.40;99.90;;;;;;5092316;28;19954;-77
2022/03/08 12:58:04;;;;;;;;;;;9.50;99.90;;;;;;5091805;28;19920;-77
2022/03/08 13:00:41;;;;;;;;;;;9.40;99.90;;;;;;5090993;28;20248;-77
2022/03/08 13:03:10;;;;;;;;;;;9.50;99.90;;;;;;5092492;28;19970;-78
2022/03/08 13:05:36;;;;;;;;;;;9.60;99.90;;;;;;5091756;28;19915;-77
2022/03/08 13:08:02;;;;;;;;;;;9.60;99.90;;;;;;5092387;28;20367;-78
2022/03/08 13:10:28;;;;;;;;;;;9.60;99.90;;;;;;5091665;28;20045;-78
2022/03/08 13:12:59;;;;;;;;;;;9.50;99.90;;;;;;5090455;28;19919;-78
2022/03/08 13:15:26;;;;;;;;;;;9.50;99.90;;;;;;5092245;28;19908;-78
2022/03/08 13:17:54;;;;;;;;;;;9.50;99.90;;;;;;5091826;28;19904;-78
2022/03/08 13:20:27;;;;;;;;;;;9.50;99.90;;;;;;5092126;28;19908;-77
2022/03/08 13:22:53;;;;;;;;;;;9.60;99.90;;;;;;5091629;28;19915;-78
2022/03/08 13:25:19;;;;;;;;;;;9.60;99.90;;;;;;5092158;28;19909;-78
2022/03/08 13:28:03;;;;;;;;;;;9.70;99.90;;;;;;5091368;28;19973;-77
2022/03/08 13:30:33;;;;;;;;;;;10.00;99.90;;;;;;5092197;28;19908;-78
2022/03/08 13:33:15;;;;;;;;;;;10.30;99.90;;;;;;5097149;28;20335;-78
2022/03/08 13:35:48;;;;;;;;;;;10.40;99.90;;;;;;5091341;28;20369;-78
2022/03/08 13:38:18;;;;;;;;;;;10.60;99.90;;;;;;5092126;28;19908;-78
2022/03/08 13:40:44;;;;;;;;;;;10.70;99.90;;;;;;5090178;28;19908;-78
2022/03/08 13:43:10;;;;;;;;;;;10.90;99.90;;;;;;5091954;28;19912;-78
2022/03/08 13:45:37;;;;;;;;;;;11.00;99.90;;;;;;5091426;28;19912;-77
2022/03/08 13:48:04;;;;;;;;;;;11.30;99.90;;;;;;5091911;28;19916;-78
2022/03/08 13:50:30;;;;;;;;;;;11.50;99.90;;;;;;5091782;28;20253;-78
2022/03/08 13:52:57;;;;;;;;;;;11.80;99.90;;;;;;5092157;28;19973;-78
2022/03/08 13:55:29;;;;;;;;;;;11.90;99.90;;;;;;5092469;28;19995;-77
2022/03/08 13:58:24;;;;;;;;;;;12.00;99.90;;;;;;5091584;28;20311;-77
2022/03/08 14:00:51;;;;;;;;;;;12.10;99.90;;;;;;5086527;28;19955;-77
2022/03/08 14:03:18;;;;;;;;;;;12.30;99.90;;;;;;5092745;28;19919;-77
2022/03/08 14:05:59;;;;;;;;;;;12.30;99.90;;;;;;5091835;28;19908;-78
2022/03/08 14:08:25;;;;;;;;;;;12.30;99.90;;;;;;5092216;28;19916;-78
2022/03/08 14:10:58;;;;;;;;;;;12.20;99.90;;;;;;5091611;28;19915;-78
2022/03/08 14:13:24;;;;;;;;;;;12.20;99.90;;;;;;5092191;28;19934;-78
2022/03/08 14:15:51;;;;;;;;;;;12.10;99.90;;;;;;5091755;28;19915;-78
2022/03/08 14:18:16;;;;;;;;;;;12.00;99.90;;;;;;5093154;28;19912;-77
2022/03/08 14:20:42;;;;;;;;;;;12.00;99.90;;;;;;5091400;28;19931;-77
2022/03/08 14:23:09;;;;;;;;;;;12.00;99.90;;;;;;5095789;28;20387;-77
2022/03/08 14:25:53;;;;;;;;;;;11.90;99.90;;;;;;5095660;28;19908;-78
2022/03/08 14:28:18;;;;;;;;;;;12.00;99.90;;;;;;5095976;28;19916;-78